Saturday, April 19, 2014
19:35 UTC
  |  Log In   |  Register Free
Airport Search:

Hampton Roads Executive Airport
(KPVG)

Hampton Roads Executive Airport Diagram
No Airport Diagram Available

FAA data valid effective April 3, 2014 until May 29, 2014 (unless otherwise noted).

 
 
 
 
 
 
 
 
 
 
 
 
 
 

Current Aviation Weather for Hampton Roads Executive Airport (KPVG)

The most recent METAR observation for KPVG was updated at: 1855 UTC
METAR Summary (Translated METAR)
KPVG
191855Z AUTO 06008G14KT 10SM CLR 09/06 A3025 RMK AO1 P0002
KCPK
(9.2 nm SE from KPVG)
191855Z AUTO 04011KT 10SM -RA SCT034 SCT041 10/06 A3023 RMK AO2
TAF
No TAF information found within 50 nm of KPVG
  Airport Weather Conditions for KPVG

 Current Weather at PVG
48° F
Fair
Northeast winds at 9.2 mph
PVG NOAA Radar

Pressure: 30.25 in
Humidity: 82%
Wind: from the Northeast at 9.2 gusting to 16.1 MPH (8 gusting to 14 KT)
Dew Point: 42.8°F
Visibility: 10.00 mi


Airport Weather Forecast for KPVG

Translated METAR and TAF for KPVG
Translated METAR for KPVG (1935 UTC 19 April 2014)
found at http://aviationweather.gov/adds/metars/
 
METAR text: KPVG 191915Z AUTO 06013KT 10SM FEW110 09/06 A3024 RMK AO1
Conditions at: KPVG (NORFOLK/HAMPTON , VA, US) observed 1915 UTC 19 April 2014
Temperature: 9.0°C (48°F)
Dewpoint: 6.0°C (43°F) [RH = 81%]
Pressure (altimeter): 30.24 inches Hg (1024.1 mb)
Winds: from the ENE (60 degrees) at 15 MPH (13 knots; 6.8 m/s)
Visibility: 10 or more miles (16+ km)
Ceiling: at least 12,000 feet AGL
Clouds: few clouds at 11000 feet AGL
Weather: automated observation with no human augmentation;
there may or may not be significant weather present at this time
Translated TAF for KPVG

There is no translated TAF available for this airport

Find All Airport Services Find A Hotel Find A Rental Car Find A Golf Course Find A Restaurant $100 Hamburger



FBO's on the Field
FBO Company Facility Photos Services Transportation Aviation Fuel Prices: Prices include tax
Catering Weather Repair Courtesy Rental Type 100LL JetA JetA+ MOGAS 8087
 
Virginia Aviation Associates, LLC

This FBO has not yet been rated
FS:Shell
Last Updated: Mar-18
Login to update fuel prices
SS:
Contact Virginia Aviation Associates, LLCMore FBO Information
 
Add another FBO Facility Photos Catering Weather Repair Courtesy Rental Type 100LL JetA JetA+ MOGAS 8087
Services Transportation Aviation Fuel Prices: Prices include tax


GlobalAir.com Airport Resource Center model-print
model-print
model-print
model-print